createdAt,value
2022-12-19T00:00:33.921Z,41.14
2022-12-19T00:03:21.473Z,41.06
2022-12-19T00:05:49.589Z,41.12
2022-12-19T00:08:17.946Z,40.88
2022-12-19T00:10:55.527Z,40.97
2022-12-19T00:13:23.719Z,40.97
2022-12-19T00:15:51.437Z,40.69
2022-12-19T00:18:19.023Z,40.69
2022-12-19T00:20:58.195Z,40.69
2022-12-19T00:23:27.246Z,40.76
2022-12-19T00:25:54.937Z,40.74
2022-12-19T00:28:23.296Z,40.71
2022-12-19T00:30:51.745Z,40.50
2022-12-19T00:33:21.781Z,40.83
2022-12-19T00:35:49.563Z,40.38
2022-12-19T00:38:16.829Z,40.41
2022-12-19T00:40:44.598Z,40.29
2022-12-19T00:43:11.876Z,40.55
2022-12-19T00:45:39.494Z,40.51
2022-12-19T00:48:07.493Z,40.66
2022-12-19T00:50:36.908Z,40.26
2022-12-19T00:53:04.188Z,40.16
2022-12-19T00:55:31.783Z,40.14
2022-12-19T00:58:00.628Z,40.17
2022-12-19T01:00:28.594Z,40.34
2022-12-19T01:02:56.769Z,40.01
2022-12-19T01:05:24.423Z,40.01
2022-12-19T01:07:52.342Z,40.09
2022-12-19T01:10:19.996Z,39.95
2022-12-19T01:12:47.318Z,39.91
2022-12-19T01:15:18.659Z,40.09
2022-12-19T01:17:46.845Z,39.93
2022-12-19T01:20:17.562Z,39.96
2022-12-19T01:22:46.755Z,39.84
2022-12-19T01:25:14.553Z,40.09
2022-12-19T01:27:42.469Z,39.99
2022-12-19T01:30:10.804Z,39.82
2022-12-19T01:32:38.385Z,39.65
2022-12-19T01:35:09.922Z,39.59
2022-12-19T01:37:53.596Z,39.52
2022-12-19T01:40:26.751Z,39.90
2022-12-19T01:42:53.957Z,39.61
2022-12-19T01:45:34.462Z,39.73
2022-12-19T01:48:18.229Z,39.36
2022-12-19T01:51:11.621Z,39.36
2022-12-19T01:53:49.982Z,39.49
2022-12-19T01:56:24.397Z,39.27
2022-12-19T01:59:05.955Z,39.42
2022-12-19T02:01:35.618Z,39.33
2022-12-19T02:04:06.990Z,39.60
2022-12-19T02:06:35.005Z,39.26
2022-12-19T02:09:02.519Z,39.10
2022-12-19T02:11:31.455Z,39.29
2022-12-19T02:13:59.753Z,39.09
2022-12-19T02:16:46.057Z,39.06
2022-12-19T02:19:31.785Z,39.06
2022-12-19T02:22:39.697Z,39.19
2022-12-19T02:25:31.583Z,38.85
2022-12-19T02:28:30.015Z,38.82
2022-12-19T02:31:19.535Z,38.89
2022-12-19T02:33:53.138Z,38.96
2022-12-19T02:37:05.436Z,38.98
2022-12-19T02:39:55.100Z,38.84
2022-12-19T02:42:30.513Z,39.14
2022-12-19T02:45:01.912Z,38.91
2022-12-19T02:47:31.550Z,38.84
2022-12-19T02:49:59.239Z,38.95
2022-12-19T02:52:26.497Z,38.97
2022-12-19T02:54:57.494Z,38.77
2022-12-19T02:57:31.018Z,38.83
2022-12-19T03:00:16.042Z,38.87
2022-12-19T03:03:11.281Z,38.54
2022-12-19T03:05:41.777Z,38.92
2022-12-19T03:08:14.770Z,38.56
2022-12-19T03:10:57.777Z,38.82
2022-12-19T03:13:56.883Z,38.42
2022-12-19T03:16:25.246Z,38.62
2022-12-19T03:18:54.087Z,38.46
2022-12-19T03:21:39.376Z,38.33
2022-12-19T03:24:08.097Z,38.66
2022-12-19T03:26:49.411Z,38.43
2022-12-19T03:29:23.784Z,38.27
2022-12-19T03:31:52.282Z,38.59
2022-12-19T03:34:27.795Z,38.23
2022-12-19T03:36:59.798Z,38.46
2022-12-19T03:39:29.538Z,38.42
2022-12-19T03:42:18.234Z,38.27
2022-12-19T03:44:46.691Z,38.28
2022-12-19T03:47:35.545Z,38.14
2022-12-19T03:50:03.857Z,38.07
2022-12-19T03:52:52.035Z,38.22
2022-12-19T03:55:24.394Z,38.00
2022-12-19T03:58:10.566Z,38.10
2022-12-19T04:00:43.769Z,37.86
2022-12-19T04:03:11.986Z,38.33
2022-12-19T04:05:41.843Z,38.08
2022-12-19T04:08:11.591Z,38.08
2022-12-19T04:11:03.962Z,37.90
2022-12-19T04:13:42.095Z,37.92
2022-12-19T04:16:23.665Z,38.01
2022-12-19T04:19:03.198Z,37.99
2022-12-19T04:21:35.023Z,37.90
2022-12-19T04:24:15.773Z,37.77
2022-12-19T04:26:47.571Z,38.06
2022-12-19T04:29:15.886Z,38.03
2022-12-19T04:31:44.335Z,37.74
2022-12-19T04:34:11.891Z,37.70
2022-12-19T04:36:39.214Z,37.61
2022-12-19T04:39:07.231Z,37.71
2022-12-19T04:41:34.529Z,37.55
2022-12-19T04:44:02.077Z,37.73
2022-12-19T04:46:29.361Z,37.83
2022-12-19T04:48:56.974Z,37.46
2022-12-19T04:51:24.311Z,37.78
2022-12-19T04:53:51.834Z,37.52
2022-12-19T04:56:19.149Z,37.54
2022-12-19T04:58:46.682Z,37.81
2022-12-19T05:01:14.349Z,37.47
2022-12-19T05:03:42.125Z,37.57
2022-12-19T05:06:12.809Z,37.67
2022-12-19T05:08:42.955Z,37.48
2022-12-19T05:11:17.528Z,37.50
2022-12-19T05:13:47.606Z,37.54
2022-12-19T05:16:15.918Z,37.43
2022-12-19T05:18:44.219Z,37.53
2022-12-19T05:21:12.106Z,37.32
2022-12-19T05:23:39.813Z,37.69
2022-12-19T05:26:07.733Z,37.42
2022-12-19T05:28:35.519Z,37.21
2022-12-19T05:31:11.192Z,37.59
2022-12-19T05:33:40.959Z,37.23
2022-12-19T05:36:08.922Z,37.24
2022-12-19T05:38:37.008Z,37.38
2022-12-19T05:41:12.667Z,37.14
2022-12-19T05:43:40.405Z,37.44
2022-12-19T05:46:08.226Z,37.50
2022-12-19T05:48:35.803Z,37.64
2022-12-19T05:51:03.871Z,37.63
2022-12-19T05:53:31.497Z,37.69
2022-12-19T05:56:10.824Z,37.56
2022-12-19T05:58:40.247Z,37.73
2022-12-19T06:01:27.937Z,37.89
2022-12-19T06:03:55.868Z,37.85
2022-12-19T06:06:26.070Z,38.27
2022-12-19T06:08:55.422Z,37.99
2022-12-19T06:11:23.476Z,37.76
2022-12-19T06:13:51.353Z,37.46
2022-12-19T06:16:20.951Z,37.77
2022-12-19T06:18:48.898Z,37.29
2022-12-19T06:21:18.799Z,37.60
2022-12-19T06:23:47.210Z,37.23
2022-12-19T06:26:19.478Z,37.11
2022-12-19T06:28:49.255Z,37.08
2022-12-19T06:31:17.724Z,37.61
2022-12-19T06:33:45.619Z,38.35
2022-12-19T06:36:18.567Z,40.23
2022-12-19T06:38:46.605Z,38.57
2022-12-19T06:41:33.546Z,38.17
2022-12-19T06:44:02.270Z,38.37
2022-12-19T06:46:30.365Z,38.27
2022-12-19T06:48:58.001Z,38.42
2022-12-19T06:51:25.277Z,38.54
2022-12-19T06:53:52.895Z,38.18
2022-12-19T06:56:20.323Z,38.03
2022-12-19T06:58:48.975Z,38.32
2022-12-19T07:01:22.107Z,37.93
2022-12-19T07:03:50.082Z,38.05
2022-12-19T07:06:17.383Z,38.00
2022-12-19T07:08:45.009Z,38.28
2022-12-19T07:11:12.269Z,38.48
2022-12-19T07:13:39.787Z,38.75
2022-12-19T07:16:08.158Z,38.48
2022-12-19T07:18:39.738Z,38.70
2022-12-19T07:21:11.203Z,38.66
2022-12-19T07:23:39.710Z,39.16
2022-12-19T07:26:07.144Z,39.15
2022-12-19T07:28:35.847Z,39.43
2022-12-19T07:31:03.380Z,39.04
2022-12-19T07:33:31.057Z,39.45
2022-12-19T07:35:58.347Z,39.41
2022-12-19T07:38:26.069Z,39.61
2022-12-19T07:40:53.335Z,39.39
2022-12-19T07:43:20.887Z,39.48
2022-12-19T07:45:54.885Z,39.65
2022-12-19T07:48:22.718Z,39.60
2022-12-19T07:50:50.296Z,39.62
2022-12-19T07:53:17.823Z,39.98
2022-12-19T07:55:45.123Z,39.94
2022-12-19T07:58:12.689Z,39.75
2022-12-19T08:00:39.967Z,39.82
2022-12-19T08:03:08.043Z,39.51
2022-12-19T08:05:35.424Z,39.90
2022-12-19T08:08:03.230Z,39.67
2022-12-19T08:10:31.191Z,39.69
2022-12-19T08:12:59.066Z,40.03
2022-12-19T08:15:27.318Z,39.86
2022-12-19T08:17:55.064Z,39.93
2022-12-19T08:20:22.310Z,39.75
2022-12-19T08:22:51.396Z,39.85
2022-12-19T08:25:18.646Z,40.17
2022-12-19T08:27:46.334Z,39.86
2022-12-19T08:30:14.886Z,39.86
2022-12-19T08:32:44.807Z,39.78
2022-12-19T08:35:12.123Z,40.10
2022-12-19T08:37:39.921Z,40.00
2022-12-19T08:40:07.979Z,40.06
2022-12-19T08:42:35.537Z,39.96
2022-12-19T08:45:02.984Z,39.92
2022-12-19T08:47:30.542Z,39.88
2022-12-19T08:49:57.776Z,39.89
2022-12-19T08:52:25.353Z,40.06
2022-12-19T08:54:52.702Z,40.13
2022-12-19T08:57:20.463Z,40.07
2022-12-19T08:59:47.988Z,40.03
2022-12-19T09:02:16.544Z,40.12
2022-12-19T09:05:57.792Z,40.22
2022-12-19T09:07:31.671Z,40.18
2022-12-19T09:10:02.175Z,40.36
2022-12-19T09:12:29.495Z,40.18
2022-12-19T09:14:57.145Z,40.33
2022-12-19T09:17:24.472Z,40.34
2022-12-19T09:19:53.266Z,40.06
2022-12-19T09:22:21.022Z,40.21
2022-12-19T09:24:55.147Z,40.22
2022-12-19T09:27:23.599Z,40.00
2022-12-19T09:29:51.524Z,39.86
2022-12-19T09:32:18.878Z,39.93
2022-12-19T09:34:46.464Z,39.95
2022-12-19T09:37:16.126Z,40.10
2022-12-19T09:39:48.519Z,40.31
2022-12-19T09:42:41.708Z,40.52
2022-12-19T09:45:31.926Z,40.37
2022-12-19T09:48:01.366Z,40.62
2022-12-19T09:51:10.554Z,40.70
2022-12-19T09:54:05.237Z,40.62
2022-12-19T09:56:45.885Z,40.74
2022-12-19T09:59:39.912Z,40.61
2022-12-19T10:02:28.330Z,41.06
2022-12-19T10:05:49.153Z,40.94
2022-12-19T10:08:09.009Z,40.84
2022-12-19T10:12:35.668Z,41.17
2022-12-19T10:14:19.598Z,41.20
2022-12-19T10:17:24.134Z,40.89
2022-12-19T10:20:26.477Z,41.05
2022-12-19T10:23:31.136Z,41.04
2022-12-19T10:26:19.344Z,40.90
2022-12-19T10:28:55.362Z,40.86
2022-12-19T10:31:54.970Z,41.08
2022-12-19T10:34:25.104Z,40.67
2022-12-19T10:37:25.548Z,40.77
2022-12-19T10:39:57.466Z,40.85
2022-12-19T10:42:42.939Z,40.76
2022-12-19T10:45:16.427Z,40.47
2022-12-19T10:47:44.080Z,40.84
2022-12-19T10:50:13.610Z,40.78
2022-12-19T10:52:52.403Z,41.05
2022-12-19T10:55:42.637Z,40.95
2022-12-19T10:58:34.546Z,40.47
2022-12-19T11:01:25.775Z,40.67
2022-12-19T11:04:33.437Z,40.65
2022-12-19T11:07:01.279Z,40.58
2022-12-19T11:09:30.587Z,40.54
2022-12-19T11:14:30.968Z,40.70
2022-12-19T11:21:14.507Z,40.62
2022-12-19T11:24:46.949Z,40.42
2022-12-19T11:29:18.523Z,40.27
2022-12-19T11:29:26.396Z,40.61
2022-12-19T11:29:42.536Z,40.41
2022-12-19T11:32:44.467Z,40.69
2022-12-19T11:35:37.178Z,40.92
2022-12-19T11:38:08.314Z,40.75
2022-12-19T11:41:01.865Z,40.67
2022-12-19T11:43:46.124Z,40.79
2022-12-19T11:46:40.660Z,40.69
2022-12-19T11:49:36.532Z,40.48
2022-12-19T11:53:02.410Z,40.38
2022-12-19T11:55:22.665Z,40.43
2022-12-19T11:57:52.274Z,40.70
2022-12-19T12:00:22.332Z,40.35
2022-12-19T12:03:01.465Z,40.26
2022-12-19T12:05:45.106Z,40.44
2022-12-19T12:09:32.900Z,40.54
2022-12-19T12:18:36.760Z,40.47
2022-12-19T12:26:25.614Z,40.30
2022-12-19T12:31:01.729Z,40.33
2022-12-19T12:31:13.967Z,40.39
2022-12-19T12:31:42.625Z,40.50
2022-12-19T12:31:45.109Z,40.52
2022-12-19T12:32:04.668Z,40.52
2022-12-19T12:35:46.223Z,40.40
2022-12-19T12:39:50.450Z,40.50
2022-12-19T12:42:42.581Z,40.50
2022-12-19T12:45:31.906Z,40.43
2022-12-19T12:47:59.471Z,40.32
2022-12-19T12:50:28.219Z,40.35
2022-12-19T12:52:59.856Z,40.67
2022-12-19T12:55:31.819Z,40.48
2022-12-19T12:57:59.506Z,40.67
2022-12-19T13:00:29.392Z,40.39
2022-12-19T13:03:16.205Z,40.44
2022-12-19T13:05:46.608Z,40.78
2022-12-19T13:08:26.100Z,40.60
2022-12-19T13:10:55.740Z,40.61
2022-12-19T13:13:58.053Z,40.48
2022-12-19T13:16:43.686Z,40.49
2022-12-19T13:19:28.880Z,40.52
2022-12-19T13:22:08.956Z,40.63
2022-12-19T13:24:54.005Z,40.73
2022-12-19T13:27:21.475Z,40.62
2022-12-19T13:30:01.040Z,40.65
2022-12-19T13:32:40.575Z,40.63
2022-12-19T13:35:39.053Z,40.53
2022-12-19T13:39:54.296Z,40.60
2022-12-19T13:41:27.107Z,40.61
2022-12-19T13:43:59.775Z,40.58
2022-12-19T13:46:39.457Z,40.54
2022-12-19T13:49:14.020Z,40.36
2022-12-19T13:51:47.236Z,40.41
2022-12-19T13:54:20.599Z,40.38
2022-12-19T13:56:48.428Z,40.53
2022-12-19T13:59:17.238Z,40.35
2022-12-19T14:01:45.882Z,40.15
2022-12-19T14:04:27.782Z,40.11
2022-12-19T14:07:01.308Z,40.18
2022-12-19T14:11:31.324Z,40.09
2022-12-19T14:13:47.220Z,40.10
2022-12-19T14:15:51.877Z,40.34
2022-12-19T14:18:45.165Z,40.14
2022-12-19T14:22:11.514Z,40.06
2022-12-19T14:24:24.105Z,39.99
2022-12-19T14:28:23.156Z,39.99
2022-12-19T14:30:26.577Z,40.15
2022-12-19T14:33:47.186Z,39.79
2022-12-19T14:36:10.525Z,40.07
2022-12-19T14:39:24.219Z,39.80
2022-12-19T14:42:00.992Z,39.72
2022-12-19T14:52:35.101Z,39.65
2022-12-19T14:54:00.623Z,39.96
2022-12-19T14:54:16.866Z,39.70
2022-12-19T14:54:51.527Z,39.67
2022-12-19T14:59:04.160Z,39.71
2022-12-19T15:01:34.586Z,39.49
2022-12-19T15:04:50.396Z,39.49
2022-12-19T15:07:09.740Z,39.43
2022-12-19T15:11:06.383Z,39.21
2022-12-19T15:14:52.305Z,39.39
2022-12-19T15:16:05.810Z,39.36
2022-12-19T15:18:33.267Z,39.60
2022-12-19T15:21:05.661Z,39.21
2022-12-19T15:23:33.002Z,39.41
2022-12-19T15:26:05.022Z,38.95
2022-12-19T15:28:46.989Z,39.32
2022-12-19T15:31:27.351Z,39.02
2022-12-19T15:36:43.153Z,38.98
2022-12-19T15:39:10.869Z,38.79
2022-12-19T15:41:38.451Z,38.76
2022-12-19T15:44:15.252Z,38.57
2022-12-19T15:46:48.469Z,38.72
2022-12-19T15:49:21.415Z,38.90
2022-12-19T15:51:49.761Z,38.73
2022-12-19T15:57:09.116Z,38.71
2022-12-19T15:59:43.922Z,38.87
2022-12-19T16:02:17.520Z,38.55
2022-12-19T16:04:47.974Z,38.63
2022-12-19T16:07:18.106Z,38.69
2022-12-19T16:09:45.751Z,38.72
2022-12-19T16:12:15.887Z,38.48
2022-12-19T16:14:45.369Z,38.57
2022-12-19T16:17:19.063Z,38.51
2022-12-19T16:19:46.350Z,38.56
2022-12-19T16:22:28.669Z,38.40
2022-12-19T16:24:56.021Z,38.60
2022-12-19T16:27:28.952Z,38.27
2022-12-19T16:29:58.986Z,38.13
2022-12-19T16:32:26.562Z,38.65
2022-12-19T16:34:54.370Z,38.57
2022-12-19T16:37:24.674Z,38.55
2022-12-19T16:39:54.634Z,38.27
2022-12-19T16:42:22.219Z,38.50
2022-12-19T16:44:49.607Z,38.09
2022-12-19T16:47:18.189Z,38.28
2022-12-19T16:49:46.492Z,38.18
2022-12-19T16:52:14.067Z,38.08
2022-12-19T16:54:41.442Z,38.25
2022-12-19T16:57:19.596Z,38.04
2022-12-19T16:59:47.088Z,38.00
2022-12-19T17:02:49.370Z,38.07
2022-12-19T17:05:23.394Z,37.80
2022-12-19T17:07:52.284Z,37.93
2022-12-19T17:10:26.181Z,37.57
2022-12-19T17:12:55.717Z,37.89
2022-12-19T17:15:28.137Z,37.83
2022-12-19T17:17:59.246Z,37.53
2022-12-19T17:20:32.133Z,37.51
2022-12-19T17:23:00.040Z,37.52
2022-12-19T17:25:28.151Z,37.22
2022-12-19T17:27:56.351Z,37.32
2022-12-19T17:30:24.115Z,37.13
2022-12-19T17:32:54.704Z,37.07
2022-12-19T17:35:28.252Z,37.31
2022-12-19T17:37:58.442Z,37.07
2022-12-19T17:40:28.531Z,37.02
2022-12-19T17:42:57.136Z,37.43
2022-12-19T17:45:27.868Z,37.11
2022-12-19T17:48:02.894Z,37.55
2022-12-19T17:50:32.368Z,37.30
2022-12-19T17:53:00.320Z,37.49
2022-12-19T17:55:29.703Z,37.14
2022-12-19T17:57:57.992Z,37.50
2022-12-19T18:00:30.729Z,37.49
2022-12-19T18:03:04.815Z,37.56
2022-12-19T18:05:38.249Z,37.40
2022-12-19T18:08:18.854Z,37.43
2022-12-19T18:10:46.150Z,37.48
2022-12-19T18:13:13.748Z,37.46
2022-12-19T18:15:41.141Z,37.87
2022-12-19T18:18:13.947Z,37.45
2022-12-19T18:20:43.667Z,37.70
2022-12-19T18:23:17.508Z,37.69
2022-12-19T18:25:45.770Z,37.72
2022-12-19T18:28:14.569Z,37.60
2022-12-19T18:30:46.069Z,37.75
2022-12-19T18:33:17.716Z,37.54
2022-12-19T18:35:47.813Z,37.57
2022-12-19T18:38:20.972Z,37.62
2022-12-19T18:40:51.782Z,37.77
2022-12-19T18:43:19.829Z,37.73
2022-12-19T18:45:51.680Z,37.80
2022-12-19T18:48:26.943Z,37.83
2022-12-19T18:50:55.843Z,37.71
2022-12-19T18:53:35.302Z,37.87
2022-12-19T18:56:06.111Z,37.83
2022-12-19T18:58:34.413Z,37.89
2022-12-19T19:01:03.661Z,37.65
2022-12-19T19:03:38.098Z,37.52
2022-12-19T19:06:18.767Z,37.68
2022-12-19T19:08:46.610Z,37.86
2022-12-19T19:11:14.392Z,37.52
2022-12-19T19:13:43.606Z,37.60
2022-12-19T19:16:18.657Z,37.41
2022-12-19T19:18:48.648Z,37.71
2022-12-19T19:21:16.322Z,37.69
2022-12-19T19:23:52.074Z,37.40
2022-12-19T19:26:19.397Z,37.38
2022-12-19T19:28:52.267Z,37.55
2022-12-19T19:31:23.367Z,37.53
2022-12-19T19:33:57.969Z,37.61
2022-12-19T19:36:29.300Z,37.25
2022-12-19T19:38:57.927Z,37.40
2022-12-19T19:41:30.199Z,37.26
2022-12-19T19:43:59.691Z,37.12
2022-12-19T19:46:27.724Z,37.22
2022-12-19T19:48:55.376Z,36.93
2022-12-19T19:51:22.678Z,37.32
2022-12-19T19:53:50.265Z,37.25
2022-12-19T19:56:17.517Z,37.14
2022-12-19T19:58:45.041Z,37.00
2022-12-19T20:01:14.163Z,37.37
2022-12-19T20:03:43.143Z,37.18
2022-12-19T20:06:10.992Z,37.05
2022-12-19T20:08:40.862Z,37.01
2022-12-19T20:11:09.528Z,37.08
2022-12-19T20:13:38.172Z,36.96
2022-12-19T20:16:13.691Z,37.03
2022-12-19T20:18:42.409Z,37.23
2022-12-19T20:21:13.335Z,37.32
2022-12-19T20:23:43.277Z,37.23
2022-12-19T20:26:12.591Z,37.39
2022-12-19T20:28:47.658Z,37.14
2022-12-19T20:31:17.927Z,37.12
2022-12-19T20:33:46.378Z,37.21
2022-12-19T20:36:15.267Z,37.23
2022-12-19T20:38:42.988Z,37.03
2022-12-19T20:41:10.903Z,36.95
2022-12-19T20:43:38.623Z,37.12
2022-12-19T20:46:08.637Z,37.27
2022-12-19T20:48:37.116Z,37.47
2022-12-19T20:51:06.064Z,37.55
2022-12-19T20:53:36.256Z,37.58
2022-12-19T20:56:06.123Z,37.68
2022-12-19T20:58:36.081Z,38.17
2022-12-19T21:01:09.972Z,38.19
2022-12-19T21:03:39.406Z,38.75
2022-12-19T21:06:08.075Z,38.67
2022-12-19T21:08:37.109Z,38.57
2022-12-19T21:11:06.006Z,38.83
2022-12-19T21:13:35.659Z,39.09
2022-12-19T21:16:07.164Z,38.99
2022-12-19T21:18:37.089Z,38.78
2022-12-19T21:21:06.042Z,39.04
2022-12-19T21:23:34.372Z,39.18
2022-12-19T21:26:04.550Z,38.99
2022-12-19T21:28:32.709Z,38.85
2022-12-19T21:31:06.518Z,38.85
2022-12-19T21:33:34.215Z,39.25
2022-12-19T21:36:12.811Z,39.12
2022-12-19T21:38:40.451Z,39.02
2022-12-19T21:41:08.682Z,39.18
2022-12-19T21:43:38.108Z,39.01
2022-12-19T21:46:12.311Z,39.03
2022-12-19T21:48:42.281Z,39.24
2022-12-19T21:51:11.294Z,39.08
2022-12-19T21:53:39.493Z,38.86
2022-12-19T21:56:24.052Z,39.16
2022-12-19T21:59:02.881Z,38.95
2022-12-19T22:01:31.452Z,38.92
2022-12-19T22:04:06.324Z,39.08
2022-12-19T22:06:35.550Z,38.98
2022-12-19T22:09:04.976Z,39.04
2022-12-19T22:11:32.525Z,39.16
2022-12-19T22:14:01.158Z,38.84
2022-12-19T22:16:29.072Z,38.74
2022-12-19T22:18:57.157Z,38.65
2022-12-19T22:21:25.546Z,38.69
2022-12-19T22:23:57.009Z,38.77
2022-12-19T22:26:25.781Z,39.03
2022-12-19T22:28:55.028Z,38.77
2022-12-19T22:31:33.059Z,38.56
2022-12-19T22:34:04.777Z,38.68
2022-12-19T22:36:33.803Z,38.55
2022-12-19T22:39:04.490Z,38.61
2022-12-19T22:41:33.739Z,38.42
2022-12-19T22:44:02.138Z,38.67
2022-12-19T22:46:35.077Z,38.69
2022-12-19T22:49:05.922Z,38.56
2022-12-19T22:51:35.175Z,38.61
2022-12-19T22:54:03.829Z,38.72
2022-12-19T22:56:32.779Z,38.73
2022-12-19T22:59:03.733Z,38.27
2022-12-19T23:01:34.030Z,38.63
2022-12-19T23:04:03.155Z,38.67
2022-12-19T23:06:33.568Z,38.48
2022-12-19T23:09:01.577Z,38.62
2022-12-19T23:11:32.635Z,38.45
2022-12-19T23:14:01.779Z,38.81
2022-12-19T23:16:29.490Z,38.38
2022-12-19T23:18:57.487Z,38.47
2022-12-19T23:21:25.622Z,38.38
2022-12-19T23:23:54.899Z,38.60
2022-12-19T23:26:25.389Z,38.57
2022-12-19T23:29:06.663Z,38.33
2022-12-19T23:31:34.156Z,38.48
2022-12-19T23:34:01.880Z,38.40
2022-12-19T23:39:16.977Z,38.64
2022-12-19T23:41:44.297Z,38.38
2022-12-19T23:44:12.758Z,38.39
2022-12-19T23:46:40.205Z,38.41
2022-12-19T23:49:07.922Z,38.61
2022-12-19T23:51:35.187Z,38.33
2022-12-19T23:54:02.778Z,38.49
2022-12-19T23:56:31.739Z,38.58
2022-12-19T23:58:59.415Z,38.66
